sensor_id;sensor_type;location;lat;lon;timestamp;pressure;altitude;pressure_sealevel;temperature;humidity
28310;BME280;15571;50.974;13.936;2024-03-23T00:55:06;99301.63;;;12.52;100.00
28310;BME280;15571;50.974;13.936;2024-03-23T00:58:09;99297.28;;;12.50;100.00
28310;BME280;15571;50.974;13.936;2024-03-23T01:01:10;99300.16;;;12.42;100.00
28310;BME280;15571;50.974;13.936;2024-03-23T01:04:12;99300.41;;;12.33;100.00
28310;BME280;15571;50.974;13.936;2024-03-23T01:07:15;99296.09;;;12.30;100.00
28310;BME280;15571;50.974;13.936;2024-03-23T01:10:19;99300.56;;;12.26;100.00
28310;BME280;15571;50.974;13.936;2024-03-23T01:13:21;99300.91;;;12.14;100.00
28310;BME280;15571;50.974;13.936;2024-03-23T01:16:23;99305.28;;;12.13;100.00
28310;BME280;15571;50.974;13.936;2024-03-23T01:19:24;99306.16;;;12.14;100.00
28310;BME280;15571;50.974;13.936;2024-03-23T01:22:25;99306.94;;;12.18;100.00
28310;BME280;15571;50.974;13.936;2024-03-23T01:25:29;99305.34;;;12.12;100.00
28310;BME280;15571;50.974;13.936;2024-03-23T01:28:29;99292.88;;;12.20;100.00
28310;BME280;15571;50.974;13.936;2024-03-23T01:31:31;99280.47;;;12.25;100.00
28310;BME280;15571;50.974;13.936;2024-03-23T01:34:33;99276.47;;;12.12;100.00
28310;BME280;15571;50.974;13.936;2024-03-23T01:37:34;99264.13;;;12.16;100.00
28310;BME280;15571;50.974;13.936;2024-03-23T01:40:37;99265.09;;;12.11;100.00
28310;BME280;15571;50.974;13.936;2024-03-23T01:43:38;99253.69;;;12.14;100.00
28310;BME280;15571;50.974;13.936;2024-03-23T01:46:42;99255.81;;;11.99;100.00
28310;BME280;15571;50.974;13.936;2024-03-23T01:49:43;99256.03;;;11.90;100.00
28310;BME280;15571;50.974;13.936;2024-03-23T01:52:45;99260.44;;;11.55;100.00
28310;BME280;15571;50.974;13.936;2024-03-23T01:55:47;99251.19;;;11.75;100.00
28310;BME280;15571;50.974;13.936;2024-03-23T01:58:49;99258.25;;;11.73;100.00
28310;BME280;15571;50.974;13.936;2024-03-23T02:01:50;99248.81;;;11.65;100.00
28310;BME280;15571;50.974;13.936;2024-03-23T02:04:55;99244.72;;;11.55;100.00
28310;BME280;15571;50.974;13.936;2024-03-23T02:07:55;99234.13;;;11.58;100.00
28310;BME280;15571;50.974;13.936;2024-03-23T02:10:59;99238.63;;;11.53;100.00
28310;BME280;15571;50.974;13.936;2024-03-23T02:14:02;99238.34;;;11.29;100.00
28310;BME280;15571;50.974;13.936;2024-03-23T02:17:04;99227.50;;;11.45;100.00
28310;BME280;15571;50.974;13.936;2024-03-23T02:20:05;99233.06;;;11.31;100.00
28310;BME280;15571;50.974;13.936;2024-03-23T02:23:14;99233.84;;;11.34;100.00
28310;BME280;15571;50.974;13.936;2024-03-23T02:26:15;99227.06;;;11.26;100.00
28310;BME280;15571;50.974;13.936;2024-03-23T02:29:17;99219.38;;;11.18;100.00
28310;BME280;15571;50.974;13.936;2024-03-23T02:32:20;99204.66;;;11.14;100.00
28310;BME280;15571;50.974;13.936;2024-03-23T02:35:22;99200.09;;;11.22;100.00
28310;BME280;15571;50.974;13.936;2024-03-23T02:38:28;99202.81;;;11.17;100.00
28310;BME280;15571;50.974;13.936;2024-03-23T02:41:29;99201.59;;;11.32;100.00
28310;BME280;15571;50.974;13.936;2024-03-23T02:44:30;99209.06;;;11.12;100.00
28310;BME280;15571;50.974;13.936;2024-03-23T02:47:35;99206.56;;;11.07;100.00
28310;BME280;15571;50.974;13.936;2024-03-23T02:50:37;99202.41;;;10.98;100.00
28310;BME280;15571;50.974;13.936;2024-03-23T02:53:40;99195.63;;;10.89;100.00
28310;BME280;15571;50.974;13.936;2024-03-23T02:56:41;99197.47;;;10.86;100.00
28310;BME280;15571;50.974;13.936;2024-03-23T02:59:43;99200.22;;;10.80;100.00
28310;BME280;15571;50.974;13.936;2024-03-23T03:02:44;99198.56;;;10.76;100.00
28310;BME280;15571;50.974;13.936;2024-03-23T03:05:46;99198.69;;;10.69;100.00
28310;BME280;15571;50.974;13.936;2024-03-23T03:08:48;99202.13;;;10.71;100.00
28310;BME280;15571;50.974;13.936;2024-03-23T03:11:53;99199.16;;;10.88;100.00
28310;BME280;15571;50.974;13.936;2024-03-23T03:14:53;99188.72;;;10.87;100.00
28310;BME280;15571;50.974;13.936;2024-03-23T03:17:55;99182.59;;;10.86;100.00
28310;BME280;15571;50.974;13.936;2024-03-23T03:20:56;99173.63;;;10.97;100.00
28310;BME280;15571;50.974;13.936;2024-03-23T03:24:01;99163.81;;;11.07;100.00
28310;BME280;15571;50.974;13.936;2024-03-23T03:27:03;99156.19;;;10.96;100.00
28310;BME280;15571;50.974;13.936;2024-03-23T03:30:04;99151.91;;;10.93;100.00
28310;BME280;15571;50.974;13.936;2024-03-23T03:33:09;99144.72;;;11.01;100.00
28310;BME280;15571;50.974;13.936;2024-03-23T03:36:10;99140.50;;;10.96;100.00
28310;BME280;15571;50.974;13.936;2024-03-23T03:39:13;99144.84;;;10.97;100.00
28310;BME280;15571;50.974;13.936;2024-03-23T03:42:15;99139.31;;;11.08;100.00
28310;BME280;15571;50.974;13.936;2024-03-23T03:45:16;99136.19;;;10.93;100.00
28310;BME280;15571;50.974;13.936;2024-03-23T03:48:19;99138.44;;;10.72;100.00
28310;BME280;15571;50.974;13.936;2024-03-23T03:51:20;99131.69;;;10.62;100.00
28310;BME280;15571;50.974;13.936;2024-03-23T03:54:23;99142.50;;;10.47;100.00
28310;BME280;15571;50.974;13.936;2024-03-23T03:57:24;99142.63;;;10.40;100.00
28310;BME280;15571;50.974;13.936;2024-03-23T04:00:26;99135.84;;;10.30;100.00
28310;BME280;15571;50.974;13.936;2024-03-23T04:03:27;99133.34;;;10.66;100.00
28310;BME280;15571;50.974;13.936;2024-03-23T04:06:32;99119.88;;;10.46;100.00
28310;BME280;15571;50.974;13.936;2024-03-23T04:09:35;99120.53;;;10.54;100.00
28310;BME280;15571;50.974;13.936;2024-03-23T04:12:37;99113.38;;;10.62;100.00
28310;BME280;15571;50.974;13.936;2024-03-23T04:15:39;99099.09;;;10.76;100.00
28310;BME280;15571;50.974;13.936;2024-03-23T04:18:43;99089.47;;;10.76;100.00
28310;BME280;15571;50.974;13.936;2024-03-23T04:21:45;99098.50;;;10.64;100.00
28310;BME280;15571;50.974;13.936;2024-03-23T04:24:48;99102.28;;;10.51;100.00
28310;BME280;15571;50.974;13.936;2024-03-23T04:27:49;99097.22;;;10.45;100.00
28310;BME280;15571;50.974;13.936;2024-03-23T04:30:50;99089.97;;;10.56;100.00
28310;BME280;15571;50.974;13.936;2024-03-23T04:33:52;99094.53;;;10.48;100.00
28310;BME280;15571;50.974;13.936;2024-03-23T04:36:53;99077.13;;;10.45;100.00
28310;BME280;15571;50.974;13.936;2024-03-23T04:39:56;99082.22;;;10.51;100.00
28310;BME280;15571;50.974;13.936;2024-03-23T04:42:58;99080.03;;;10.31;100.00
28310;BME280;15571;50.974;13.936;2024-03-23T04:46:04;99080.13;;;10.28;100.00
28310;BME280;15571;50.974;13.936;2024-03-23T04:49:06;99071.66;;;10.17;100.00
28310;BME280;15571;50.974;13.936;2024-03-23T04:52:08;99051.38;;;10.26;100.00
28310;BME280;15571;50.974;13.936;2024-03-23T04:55:14;99054.03;;;10.25;100.00
28310;BME280;15571;50.974;13.936;2024-03-23T04:58:16;99040.88;;;10.28;100.00
28310;BME280;15571;50.974;13.936;2024-03-23T05:01:18;99018.91;;;10.35;100.00
28310;BME280;15571;50.974;13.936;2024-03-23T05:04:19;99003.31;;;10.31;100.00
28310;BME280;15571;50.974;13.936;2024-03-23T05:07:21;99001.44;;;10.36;100.00
28310;BME280;15571;50.974;13.936;2024-03-23T05:10:25;98990.06;;;10.40;100.00
28310;BME280;15571;50.974;13.936;2024-03-23T05:13:32;98980.78;;;10.25;100.00
28310;BME280;15571;50.974;13.936;2024-03-23T05:16:33;98965.38;;;10.12;100.00
28310;BME280;15571;50.974;13.936;2024-03-23T05:19:36;98968.53;;;10.27;100.00
28310;BME280;15571;50.974;13.936;2024-03-23T05:22:39;98961.16;;;10.07;100.00
28310;BME280;15571;50.974;13.936;2024-03-23T05:25:42;98952.31;;;10.12;100.00
28310;BME280;15571;50.974;13.936;2024-03-23T05:28:44;98942.38;;;10.27;100.00
28310;BME280;15571;50.974;13.936;2024-03-23T05:31:44;98940.66;;;10.26;100.00
28310;BME280;15571;50.974;13.936;2024-03-23T05:34:51;98944.56;;;10.46;100.00
28310;BME280;15571;50.974;13.936;2024-03-23T05:37:56;98938.44;;;10.47;100.00
28310;BME280;15571;50.974;13.936;2024-03-23T05:41:00;98942.56;;;10.55;100.00
28310;BME280;15571;50.974;13.936;2024-03-23T05:44:01;98932.16;;;10.54;100.00
28310;BME280;15571;50.974;13.936;2024-03-23T05:47:03;98929.34;;;10.60;100.00
28310;BME280;15571;50.974;13.936;2024-03-23T05:50:05;98928.31;;;10.67;100.00
28310;BME280;15571;50.974;13.936;2024-03-23T05:53:07;98948.50;;;10.62;100.00
28310;BME280;15571;50.974;13.936;2024-03-23T05:56:10;98941.53;;;10.61;100.00
28310;BME280;15571;50.974;13.936;2024-03-23T05:59:11;98934.09;;;10.79;100.00
28310;BME280;15571;50.974;13.936;2024-03-23T06:02:13;98923.47;;;10.85;100.00
28310;BME280;15571;50.974;13.936;2024-03-23T06:05:15;98919.34;;;10.76;100.00
28310;BME280;15571;50.974;13.936;2024-03-23T06:08:16;98898.13;;;10.87;100.00
28310;BME280;15571;50.974;13.936;2024-03-23T06:11:20;98889.25;;;10.91;100.00
28310;BME280;15571;50.974;13.936;2024-03-23T06:14:21;98889.56;;;10.80;100.00
28310;BME280;15571;50.974;13.936;2024-03-23T06:17:25;98881.84;;;10.76;100.00
28310;BME280;15571;50.974;13.936;2024-03-23T06:20:26;98874.56;;;10.87;100.00
28310;BME280;15571;50.974;13.936;2024-03-23T06:23:28;98884.41;;;10.77;100.00
28310;BME280;15571;50.974;13.936;2024-03-23T06:26:30;98861.09;;;10.99;100.00
28310;BME280;15571;50.974;13.936;2024-03-23T06:29:32;98849.28;;;11.16;100.00
28310;BME280;15571;50.974;13.936;2024-03-23T06:32:34;98841.72;;;11.07;100.00
28310;BME280;15571;50.974;13.936;2024-03-23T06:35:36;98835.28;;;10.87;100.00
28310;BME280;15571;50.974;13.936;2024-03-23T06:38:38;98838.25;;;10.74;100.00
28310;BME280;15571;50.974;13.936;2024-03-23T06:41:41;98828.56;;;10.78;100.00
28310;BME280;15571;50.974;13.936;2024-03-23T06:44:43;98818.09;;;10.78;100.00
28310;BME280;15571;50.974;13.936;2024-03-23T06:47:45;98804.59;;;10.92;100.00
28310;BME280;15571;50.974;13.936;2024-03-23T06:50:48;98789.34;;;11.07;100.00
28310;BME280;15571;50.974;13.936;2024-03-23T06:53:53;98788.59;;;11.01;100.00
28310;BME280;15571;50.974;13.936;2024-03-23T06:56:55;98781.72;;;10.97;100.00
28310;BME280;15571;50.974;13.936;2024-03-23T06:59:57;98785.44;;;10.90;100.00
28310;BME280;15571;50.974;13.936;2024-03-23T07:02:57;98792.34;;;10.93;100.00
28310;BME280;15571;50.974;13.936;2024-03-23T07:05:59;98788.66;;;11.00;100.00
28310;BME280;15571;50.974;13.936;2024-03-23T07:09:01;98793.84;;;11.01;100.00
28310;BME280;15571;50.974;13.936;2024-03-23T07:12:03;98780.41;;;11.12;100.00
28310;BME280;15571;50.974;13.936;2024-03-23T07:15:08;98791.69;;;11.14;100.00
28310;BME280;15571;50.974;13.936;2024-03-23T07:18:09;98783.97;;;11.11;100.00
28310;BME280;15571;50.974;13.936;2024-03-23T07:21:12;98776.25;;;11.07;100.00
28310;BME280;15571;50.974;13.936;2024-03-23T07:24:12;98757.09;;;11.04;100.00
28310;BME280;15571;50.974;13.936;2024-03-23T07:27:16;98751.56;;;11.14;100.00
28310;BME280;15571;50.974;13.936;2024-03-23T07:30:17;98739.44;;;11.11;100.00
28310;BME280;15571;50.974;13.936;2024-03-23T07:33:19;98743.38;;;10.96;100.00
28310;BME280;15571;50.974;13.936;2024-03-23T07:36:19;98727.72;;;10.66;100.00
28310;BME280;15571;50.974;13.936;2024-03-23T07:39:24;98714.19;;;11.09;100.00
28310;BME280;15571;50.974;13.936;2024-03-23T07:42:31;98710.50;;;11.14;100.00
28310;BME280;15571;50.974;13.936;2024-03-23T07:45:32;98703.91;;;11.29;100.00
28310;BME280;15571;50.974;13.936;2024-03-23T07:48:35;98684.38;;;11.40;100.00
28310;BME280;15571;50.974;13.936;2024-03-23T07:51:36;98677.22;;;11.45;100.00
28310;BME280;15571;50.974;13.936;2024-03-23T07:54:42;98686.09;;;11.41;100.00
28310;BME280;15571;50.974;13.936;2024-03-23T07:57:50;98670.38;;;11.41;100.00
28310;BME280;15571;50.974;13.936;2024-03-23T08:00:52;98670.78;;;11.53;100.00
28310;BME280;15571;50.974;13.936;2024-03-23T08:03:54;98658.59;;;11.78;100.00
28310;BME280;15571;50.974;13.936;2024-03-23T08:06:54;98650.06;;;11.96;100.00
28310;BME280;15571;50.974;13.936;2024-03-23T08:09:56;98634.00;;;12.07;100.00
28310;BME280;15571;50.974;13.936;2024-03-23T08:13:03;98627.47;;;12.18;100.00
28310;BME280;15571;50.974;13.936;2024-03-23T08:16:06;98614.84;;;12.27;100.00
28310;BME280;15571;50.974;13.936;2024-03-23T08:19:07;98613.22;;;12.47;100.00
28310;BME280;15571;50.974;13.936;2024-03-23T08:22:10;98598.28;;;12.49;100.00
28310;BME280;15571;50.974;13.936;2024-03-23T08:25:11;98601.09;;;12.67;100.00
28310;BME280;15571;50.974;13.936;2024-03-23T08:28:17;98584.72;;;12.82;100.00
28310;BME280;15571;50.974;13.936;2024-03-23T08:31:18;98587.63;;;12.97;100.00
28310;BME280;15571;50.974;13.936;2024-03-23T08:34:20;98575.03;;;13.05;100.00
28310;BME280;15571;50.974;13.936;2024-03-23T08:37:24;98582.19;;;13.22;100.00
28310;BME280;15571;50.974;13.936;2024-03-23T08:40:26;98577.25;;;13.35;100.00
28310;BME280;15571;50.974;13.936;2024-03-23T08:43:28;98581.03;;;13.50;100.00
28310;BME280;15571;50.974;13.936;2024-03-23T08:46:33;98565.16;;;13.72;100.00
28310;BME280;15571;50.974;13.936;2024-03-23T08:49:37;98573.81;;;13.74;100.00
28310;BME280;15571;50.974;13.936;2024-03-23T08:52:39;98570.69;;;13.66;100.00
28310;BME280;15571;50.974;13.936;2024-03-23T08:55:41;98565.97;;;13.53;100.00
28310;BME280;15571;50.974;13.936;2024-03-23T08:58:46;98561.91;;;13.46;100.00
28310;BME280;15571;50.974;13.936;2024-03-23T09:01:48;98580.69;;;13.37;100.00
28310;BME280;15571;50.974;13.936;2024-03-23T09:04:49;98576.66;;;13.28;100.00
28310;BME280;15571;50.974;13.936;2024-03-23T09:07:51;98562.06;;;13.22;100.00
28310;BME280;15571;50.974;13.936;2024-03-23T09:10:52;98564.91;;;13.16;100.00
28310;BME280;15571;50.974;13.936;2024-03-23T09:13:55;98590.94;;;13.02;100.00
28310;BME280;15571;50.974;13.936;2024-03-23T09:16:57;98586.63;;;12.99;100.00
28310;BME280;15571;50.974;13.936;2024-03-23T09:19:58;98583.00;;;13.24;100.00
28310;BME280;15571;50.974;13.936;2024-03-23T09:23:00;98581.00;;;13.29;100.00
28310;BME280;15571;50.974;13.936;2024-03-23T09:26:02;98585.03;;;13.38;100.00
28310;BME280;15571;50.974;13.936;2024-03-23T09:29:06;98581.72;;;13.33;100.00
28310;BME280;15571;50.974;13.936;2024-03-23T09:32:07;98583.72;;;13.28;100.00
28310;BME280;15571;50.974;13.936;2024-03-23T09:35:09;98612.81;;;13.23;100.00
28310;BME280;15571;50.974;13.936;2024-03-23T09:38:10;98641.03;;;13.40;100.00
28310;BME280;15571;50.974;13.936;2024-03-23T09:41:12;98645.81;;;13.51;100.00
28310;BME280;15571;50.974;13.936;2024-03-23T09:44:18;98631.16;;;13.45;100.00
28310;BME280;15571;50.974;13.936;2024-03-23T09:47:21;98616.84;;;13.52;100.00
28310;BME280;15571;50.974;13.936;2024-03-23T09:50:21;98611.06;;;13.65;100.00
28310;BME280;15571;50.974;13.936;2024-03-23T09:53:24;98611.97;;;13.64;100.00
28310;BME280;15571;50.974;13.936;2024-03-23T09:56:28;98622.75;;;13.58;100.00
28310;BME280;15571;50.974;13.936;2024-03-23T09:59:34;98641.03;;;13.61;100.00
28310;BME280;15571;50.974;13.936;2024-03-23T10:02:35;98657.41;;;13.24;100.00
28310;BME280;15571;50.974;13.936;2024-03-23T10:05:37;98686.25;;;13.04;100.00
28310;BME280;15571;50.974;13.936;2024-03-23T10:08:39;98703.19;;;12.97;100.00
28310;BME280;15571;50.974;13.936;2024-03-23T10:11:39;98707.47;;;12.77;100.00
28310;BME280;15571;50.974;13.936;2024-03-23T10:14:43;98755.84;;;12.46;100.00
28310;BME280;15571;50.974;13.936;2024-03-23T10:17:44;98815.78;;;12.09;100.00
28310;BME280;15571;50.974;13.936;2024-03-23T10:20:50;98815.28;;;11.70;100.00
28310;BME280;15571;50.974;13.936;2024-03-23T10:23:51;98831.41;;;11.57;100.00
28310;BME280;15571;50.974;13.936;2024-03-23T10:26:56;98859.25;;;11.03;100.00
28310;BME280;15571;50.974;13.936;2024-03-23T10:29:59;98903.59;;;10.45;100.00
28310;BME280;15571;50.974;13.936;2024-03-23T10:33:09;98911.06;;;10.24;100.00
28310;BME280;15571;50.974;13.936;2024-03-23T10:36:10;98929.47;;;10.55;100.00
28310;BME280;15571;50.974;13.936;2024-03-23T10:39:12;98960.03;;;10.17;100.00
28310;BME280;15571;50.974;13.936;2024-03-23T10:42:13;99000.84;;;9.87;100.00
28310;BME280;15571;50.974;13.936;2024-03-23T10:45:18;99002.22;;;10.03;100.00
28310;BME280;15571;50.974;13.936;2024-03-23T10:48:19;99031.31;;;9.88;100.00
28310;BME280;15571;50.974;13.936;2024-03-23T10:51:21;99068.41;;;9.63;100.00
28310;BME280;15571;50.974;13.936;2024-03-23T10:54:24;99059.63;;;9.65;100.00
28310;BME280;15571;50.974;13.936;2024-03-23T10:57:26;99086.28;;;8.91;100.00
28310;BME280;15571;50.974;13.936;2024-03-23T11:00:31;99090.56;;;8.95;100.00
28310;BME280;15571;50.974;13.936;2024-03-23T11:03:39;99122.75;;;8.94;100.00
28310;BME280;15571;50.974;13.936;2024-03-23T11:06:43;99119.19;;;9.01;100.00
28310;BME280;15571;50.974;13.936;2024-03-23T11:09:47;99138.66;;;8.80;100.00
28310;BME280;15571;50.974;13.936;2024-03-23T11:12:50;99152.50;;;8.85;100.00
28310;BME280;15571;50.974;13.936;2024-03-23T11:15:54;99143.97;;;8.72;100.00
28310;BME280;15571;50.974;13.936;2024-03-23T11:19:08;99157.94;;;8.71;100.00
28310;BME280;15571;50.974;13.936;2024-03-23T11:22:39;99175.69;;;8.43;100.00
28310;BME280;15571;50.974;13.936;2024-03-23T11:25:41;99160.97;;;8.37;100.00
28310;BME280;15571;50.974;13.936;2024-03-23T11:28:43;99153.34;;;8.23;100.00
28310;BME280;15571;50.974;13.936;2024-03-23T11:31:49;99143.53;;;8.42;100.00
28310;BME280;15571;50.974;13.936;2024-03-23T11:34:51;99160.88;;;8.43;100.00
28310;BME280;15571;50.974;13.936;2024-03-23T11:38:02;99173.78;;;8.55;100.00
28310;BME280;15571;50.974;13.936;2024-03-23T11:41:04;99193.75;;;8.60;100.00
28310;BME280;15571;50.974;13.936;2024-03-23T11:44:13;99197.28;;;8.52;100.00
28310;BME280;15571;50.974;13.936;2024-03-23T11:47:17;99200.84;;;8.47;100.00
28310;BME280;15571;50.974;13.936;2024-03-23T11:50:21;99204.19;;;8.58;100.00
28310;BME280;15571;50.974;13.936;2024-03-23T11:53:23;99204.06;;;8.66;100.00
28310;BME280;15571;50.974;13.936;2024-03-23T11:56:25;99215.19;;;8.80;100.00
28310;BME280;15571;50.974;13.936;2024-03-23T11:59:31;99209.06;;;8.83;100.00
28310;BME280;15571;50.974;13.936;2024-03-23T12:02:33;99203.22;;;8.64;100.00
28310;BME280;15571;50.974;13.936;2024-03-23T12:05:36;99201.03;;;8.97;100.00
28310;BME280;15571;50.974;13.936;2024-03-23T12:08:38;99191.97;;;9.19;100.00
28310;BME280;15571;50.974;13.936;2024-03-23T12:11:40;99200.38;;;9.37;100.00
28310;BME280;15571;50.974;13.936;2024-03-23T12:14:44;99209.44;;;9.16;100.00
28310;BME280;15571;50.974;13.936;2024-03-23T12:17:47;99195.41;;;8.65;100.00
28310;BME280;15571;50.974;13.936;2024-03-23T12:20:48;99191.28;;;9.07;100.00
28310;BME280;15571;50.974;13.936;2024-03-23T12:23:56;99222.44;;;8.60;100.00
28310;BME280;15571;50.974;13.936;2024-03-23T12:26:59;99203.19;;;8.67;100.00
28310;BME280;15571;50.974;13.936;2024-03-23T12:30:01;99203.97;;;8.72;100.00
28310;BME280;15571;50.974;13.936;2024-03-23T12:33:04;99211.56;;;8.91;100.00
28310;BME280;15571;50.974;13.936;2024-03-23T12:36:06;99196.56;;;9.03;100.00
28310;BME280;15571;50.974;13.936;2024-03-23T12:39:09;99175.06;;;8.87;100.00
28310;BME280;15571;50.974;13.936;2024-03-23T12:42:11;99188.81;;;8.99;100.00
28310;BME280;15571;50.974;13.936;2024-03-23T12:45:12;99198.59;;;8.84;100.00
28310;BME280;15571;50.974;13.936;2024-03-23T12:48:17;99217.25;;;8.56;100.00
28310;BME280;15571;50.974;13.936;2024-03-23T12:51:17;99217.38;;;9.07;100.00
28310;BME280;15571;50.974;13.936;2024-03-23T12:54:22;99224.47;;;9.00;100.00
28310;BME280;15571;50.974;13.936;2024-03-23T12:57:26;99236.59;;;9.04;100.00
28310;BME280;15571;50.974;13.936;2024-03-23T13:00:29;99234.41;;;9.31;100.00
28310;BME280;15571;50.974;13.936;2024-03-23T13:03:35;99209.22;;;9.30;100.00
28310;BME280;15571;50.974;13.936;2024-03-23T13:06:35;99194.47;;;9.26;100.00
28310;BME280;15571;50.974;13.936;2024-03-23T13:09:37;99188.47;;;9.21;100.00
28310;BME280;15571;50.974;13.936;2024-03-23T13:12:39;99208.75;;;9.58;100.00
28310;BME280;15571;50.974;13.936;2024-03-23T13:15:49;99198.69;;;9.33;100.00
28310;BME280;15571;50.974;13.936;2024-03-23T13:18:52;99239.75;;;9.25;100.00
28310;BME280;15571;50.974;13.936;2024-03-23T13:21:53;99254.53;;;9.26;100.00
28310;BME280;15571;50.974;13.936;2024-03-23T13:24:55;99278.16;;;9.18;100.00
28310;BME280;15571;50.974;13.936;2024-03-23T13:27:57;99295.28;;;8.77;100.00
28310;BME280;15571;50.974;13.936;2024-03-23T13:30:58;99301.16;;;8.91;100.00
28310;BME280;15571;50.974;13.936;2024-03-23T13:34:05;99314.16;;;8.96;100.00
28310;BME280;15571;50.974;13.936;2024-03-23T13:37:06;99323.59;;;9.03;100.00
28310;BME280;15571;50.974;13.936;2024-03-23T13:40:08;99317.47;;;9.07;100.00
28310;BME280;15571;50.974;13.936;2024-03-23T13:43:09;99299.84;;;9.22;100.00
28310;BME280;15571;50.974;13.936;2024-03-23T13:46:11;99297.16;;;9.28;100.00
28310;BME280;15571;50.974;13.936;2024-03-23T13:49:18;99289.41;;;9.22;100.00
28310;BME280;15571;50.974;13.936;2024-03-23T13:52:22;99293.22;;;9.57;100.00
28310;BME280;15571;50.974;13.936;2024-03-23T13:55:25;99303.50;;;9.68;100.00
28310;BME280;15571;50.974;13.936;2024-03-23T13:58:27;99284.72;;;9.97;100.00
28310;BME280;15571;50.974;13.936;2024-03-23T14:01:31;99256.78;;;9.97;100.00
28310;BME280;15571;50.974;13.936;2024-03-23T14:04:37;99242.09;;;9.92;100.00
28310;BME280;15571;50.974;13.936;2024-03-23T14:07:39;99249.72;;;10.04;100.00
28310;BME280;15571;50.974;13.936;2024-03-23T14:10:43;99261.19;;;10.42;100.00
28310;BME280;15571;50.974;13.936;2024-03-23T14:13:48;99263.53;;;10.56;100.00
28310;BME280;15571;50.974;13.936;2024-03-23T14:16:49;99265.75;;;10.75;100.00
28310;BME280;15571;50.974;13.936;2024-03-23T14:19:55;99288.81;;;10.98;100.00
28310;BME280;15571;50.974;13.936;2024-03-23T14:22:56;99289.38;;;11.13;100.00
28310;BME280;15571;50.974;13.936;2024-03-23T14:26:00;99287.97;;;10.98;100.00
28310;BME280;15571;50.974;13.936;2024-03-23T14:29:02;99276.06;;;10.83;100.00
28310;BME280;15571;50.974;13.936;2024-03-23T14:32:04;99275.81;;;10.95;100.00
28310;BME280;15571;50.974;13.936;2024-03-23T14:35:08;99265.34;;;10.94;100.00
28310;BME280;15571;50.974;13.936;2024-03-23T14:38:10;99270.69;;;10.89;100.00
28310;BME280;15571;50.974;13.936;2024-03-23T14:41:12;99277.66;;;10.90;100.00
28310;BME280;15571;50.974;13.936;2024-03-23T14:44:14;99275.00;;;10.92;100.00
28310;BME280;15571;50.974;13.936;2024-03-23T14:47:15;99265.25;;;10.98;100.00
28310;BME280;15571;50.974;13.936;2024-03-23T14:50:19;99258.44;;;10.91;100.00
28310;BME280;15571;50.974;13.936;2024-03-23T14:53:22;99258.16;;;11.03;100.00
28310;BME280;15571;50.974;13.936;2024-03-23T14:56:22;99250.97;;;11.12;100.00
28310;BME280;15571;50.974;13.936;2024-03-23T14:59:24;99249.25;;;11.11;100.00
28310;BME280;15571;50.974;13.936;2024-03-23T15:02:25;99233.81;;;11.00;100.00
28310;BME280;15571;50.974;13.936;2024-03-23T15:05:32;99252.50;;;10.83;100.00
28310;BME280;15571;50.974;13.936;2024-03-23T15:08:33;99248.41;;;10.69;100.00
28310;BME280;15571;50.974;13.936;2024-03-23T15:11:35;99243.84;;;10.79;100.00
28310;BME280;15571;50.974;13.936;2024-03-23T15:14:35;99232.41;;;10.85;100.00
28310;BME280;15571;50.974;13.936;2024-03-23T15:17:37;99235.75;;;10.90;100.00
28310;BME280;15571;50.974;13.936;2024-03-23T15:20:52;99238.59;;;10.81;100.00
28310;BME280;15571;50.974;13.936;2024-03-23T15:23:54;99233.91;;;10.95;100.00
28310;BME280;15571;50.974;13.936;2024-03-23T15:26:56;99228.53;;;11.01;100.00
28310;BME280;15571;50.974;13.936;2024-03-23T15:29:57;99227.00;;;10.91;100.00
28310;BME280;15571;50.974;13.936;2024-03-23T15:32:59;99220.97;;;10.87;100.00
28310;BME280;15571;50.974;13.936;2024-03-23T15:36:03;99224.44;;;10.88;100.00
28310;BME280;15571;50.974;13.936;2024-03-23T15:39:05;99216.47;;;10.94;100.00
28310;BME280;15571;50.974;13.936;2024-03-23T15:42:07;99211.69;;;11.12;100.00
28310;BME280;15571;50.974;13.936;2024-03-23T15:45:09;99210.72;;;11.16;100.00
28310;BME280;15571;50.974;13.936;2024-03-23T15:48:12;99205.34;;;11.22;100.00
28310;BME280;15571;50.974;13.936;2024-03-23T15:51:14;99201.00;;;11.21;100.00
28310;BME280;15571;50.974;13.936;2024-03-23T15:54:18;99203.66;;;11.18;100.00
28310;BME280;15571;50.974;13.936;2024-03-23T15:57:19;99189.56;;;11.25;100.00
28310;BME280;15571;50.974;13.936;2024-03-23T16:00:21;99188.72;;;11.23;100.00
28310;BME280;15571;50.974;13.936;2024-03-23T16:03:22;99176.41;;;11.27;100.00
28310;BME280;15571;50.974;13.936;2024-03-23T16:06:26;99167.72;;;11.25;100.00
28310;BME280;15571;50.974;13.936;2024-03-23T16:09:27;99161.75;;;11.18;100.00
28310;BME280;15571;50.974;13.936;2024-03-23T16:12:29;99156.63;;;11.15;100.00
28310;BME280;15571;50.974;13.936;2024-03-23T16:15:30;99159.50;;;11.04;100.00
28310;BME280;15571;50.974;13.936;2024-03-23T16:18:33;99162.22;;;10.99;100.00
28310;BME280;15571;50.974;13.936;2024-03-23T16:21:35;99157.69;;;11.06;100.00
28310;BME280;15571;50.974;13.936;2024-03-23T16:24:39;99169.19;;;11.00;100.00
28310;BME280;15571;50.974;13.936;2024-03-23T16:27:40;99163.88;;;11.03;100.00
28310;BME280;15571;50.974;13.936;2024-03-23T16:30:42;99157.88;;;10.98;100.00
28310;BME280;15571;50.974;13.936;2024-03-23T16:33:44;99183.38;;;10.92;100.00
28310;BME280;15571;50.974;13.936;2024-03-23T16:36:47;99167.56;;;10.96;100.00
28310;BME280;15571;50.974;13.936;2024-03-23T16:39:49;99169.47;;;10.88;100.00